createdAt,value
2018-09-05T00:00:28.533Z,9.37
2018-09-05T00:02:57.004Z,9.07
2018-09-05T00:05:26.431Z,9.13
2018-09-05T00:07:54.942Z,9.73
2018-09-05T00:10:23.521Z,10.30
2018-09-05T00:12:52.316Z,8.67
2018-09-05T00:15:21.037Z,9.20
2018-09-05T00:17:49.487Z,9.43
2018-09-05T00:20:21.102Z,8.20
2018-09-05T00:22:49.979Z,9.17
2018-09-05T00:25:18.679Z,10.10
2018-09-05T00:27:47.709Z,9.23
2018-09-05T00:30:16.390Z,9.40
2018-09-05T00:32:45.027Z,9.40
2018-09-05T00:35:13.588Z,9.50
2018-09-05T00:37:42.380Z,9.60
2018-09-05T00:40:11.123Z,9.90
2018-09-05T00:42:39.985Z,9.43
2018-09-05T00:45:08.738Z,11.03
2018-09-05T00:47:38.341Z,10.00
2018-09-05T00:50:07.172Z,9.40
2018-09-05T00:52:35.919Z,10.37
2018-09-05T00:55:04.639Z,9.80
2018-09-05T00:57:33.322Z,10.63
2018-09-05T01:00:02.194Z,10.20
2018-09-05T01:02:31.032Z,10.30
2018-09-05T01:05:01.628Z,9.50
2018-09-05T01:07:30.455Z,10.23
2018-09-05T01:09:59.072Z,9.73
2018-09-05T01:12:27.835Z,10.40
2018-09-05T01:14:56.621Z,10.50
2018-09-05T01:17:25.164Z,10.60
2018-09-05T01:19:53.726Z,10.60
2018-09-05T01:22:22.699Z,10.80
2018-09-05T01:24:51.614Z,11.10
2018-09-05T01:27:20.187Z,9.90
2018-09-05T01:29:48.755Z,12.60
2018-09-05T01:32:17.298Z,10.10
2018-09-05T01:34:45.914Z,10.90
2018-09-05T01:37:14.578Z,10.40
2018-09-05T01:39:43.955Z,10.57
2018-09-05T01:42:12.607Z,11.00
2018-09-05T01:44:41.732Z,10.63
2018-09-05T01:47:10.653Z,11.23
2018-09-05T01:49:39.847Z,10.83
2018-09-05T01:52:08.399Z,11.77
2018-09-05T01:54:37.002Z,11.77
2018-09-05T01:57:06.158Z,11.77
2018-09-05T01:59:34.637Z,11.63
2018-09-05T02:02:03.412Z,10.90
2018-09-05T02:04:32.219Z,12.23
2018-09-05T02:07:00.767Z,11.87
2018-09-05T02:09:29.274Z,12.20
2018-09-05T02:12:00.926Z,11.80
2018-09-05T02:14:29.441Z,13.00
2018-09-05T02:16:58.056Z,12.30
2018-09-05T02:19:27.139Z,12.80
2018-09-05T02:21:55.978Z,12.80
2018-09-05T02:24:24.615Z,12.60
2018-09-05T02:26:53.133Z,12.70
2018-09-05T02:29:22.351Z,13.43
2018-09-05T02:31:50.884Z,12.77
2018-09-05T02:34:19.780Z,13.20
2018-09-05T02:36:48.336Z,13.13
2018-09-05T02:39:16.967Z,14.13
2018-09-05T02:41:45.664Z,14.90
2018-09-05T02:44:22.195Z,13.57
2018-09-05T02:46:51.789Z,13.53
2018-09-05T02:49:20.705Z,13.17
2018-09-05T02:51:49.614Z,14.37
2018-09-05T02:54:18.238Z,14.30
2018-09-05T02:56:47.601Z,17.47
2018-09-05T02:59:16.067Z,20.40
2018-09-05T03:01:44.968Z,24.00
2018-09-05T03:04:13.659Z,24.17
2018-09-05T03:06:42.440Z,27.20
2018-09-05T03:09:10.982Z,27.80
2018-09-05T03:11:39.747Z,29.00
2018-09-05T03:14:09.307Z,30.97
2018-09-05T03:16:38.517Z,31.80
2018-09-05T03:19:06.966Z,35.63
2018-09-05T03:21:35.506Z,36.03
2018-09-05T03:24:03.961Z,36.70
2018-09-05T03:26:32.855Z,36.30
2018-09-05T03:29:01.346Z,38.73
2018-09-05T03:31:30.938Z,38.37
2018-09-05T03:33:59.473Z,37.77
2018-09-05T03:36:28.206Z,34.77
2018-09-05T03:38:56.839Z,34.77
2018-09-05T03:41:25.541Z,35.83
2018-09-05T03:43:53.989Z,35.50
2018-09-05T03:46:22.729Z,35.87
2018-09-05T03:48:51.383Z,36.10
2018-09-05T03:51:19.912Z,34.30
2018-09-05T03:53:48.887Z,35.17
2018-09-05T03:56:17.941Z,32.50
2018-09-05T03:58:46.995Z,33.03
